sensor_id;sensor_type;location;lat;lon;timestamp;pressure;altitude;pressure_sealevel;temperature;humidity
40155;BME280;25875;48.202;16.334;2023-06-14T00:01:57;98796.69;;;17.29;47.61
40155;BME280;25875;48.202;16.334;2023-06-14T00:04:23;98794.16;;;17.27;48.08
40155;BME280;25875;48.202;16.334;2023-06-14T00:06:50;98792.53;;;17.06;48.49
40155;BME280;25875;48.202;16.334;2023-06-14T00:09:18;98783.69;;;17.15;47.97
40155;BME280;25875;48.202;16.334;2023-06-14T00:11:44;98746.03;;;16.87;47.98
40155;BME280;25875;48.202;16.334;2023-06-14T00:14:11;98788.59;;;17.10;48.32
40155;BME280;25875;48.202;16.334;2023-06-14T00:16:40;98792.41;;;17.07;48.36
40155;BME280;25875;48.202;16.334;2023-06-14T00:19:08;98796.91;;;17.07;48.48
40155;BME280;25875;48.202;16.334;2023-06-14T00:21:35;98797.91;;;17.06;48.25
40155;BME280;25875;48.202;16.334;2023-06-14T00:24:03;98797.91;;;17.06;47.93
40155;BME280;25875;48.202;16.334;2023-06-14T00:26:30;98803.22;;;16.86;48.78
40155;BME280;25875;48.202;16.334;2023-06-14T00:28:57;98802.22;;;16.87;48.63
40155;BME280;25875;48.202;16.334;2023-06-14T00:31:24;98795.59;;;16.82;48.72
40155;BME280;25875;48.202;16.334;2023-06-14T00:33:52;98799.94;;;16.73;48.81
40155;BME280;25875;48.202;16.334;2023-06-14T00:36:18;98793.63;;;16.74;48.71
40155;BME280;25875;48.202;16.334;2023-06-14T00:38:45;98797.69;;;16.68;48.76
40155;BME280;25875;48.202;16.334;2023-06-14T00:41:12;98799.03;;;16.63;49.53
40155;BME280;25875;48.202;16.334;2023-06-14T00:43:39;98794.41;;;16.65;49.29
40155;BME280;25875;48.202;16.334;2023-06-14T00:46:05;98788.47;;;16.61;49.55
40155;BME280;25875;48.202;16.334;2023-06-14T00:48:32;98788.19;;;16.64;49.56
40155;BME280;25875;48.202;16.334;2023-06-14T00:51:01;98788.09;;;16.66;48.90
40155;BME280;25875;48.202;16.334;2023-06-14T00:53:30;98785.78;;;16.61;49.03
40155;BME280;25875;48.202;16.334;2023-06-14T00:55:59;98786.56;;;16.73;49.26
40155;BME280;25875;48.202;16.334;2023-06-14T00:58:26;98783.47;;;16.68;49.41
40155;BME280;25875;48.202;16.334;2023-06-14T01:00:54;98783.88;;;16.73;49.00
40155;BME280;25875;48.202;16.334;2023-06-14T01:03:21;98770.94;;;16.78;48.41
40155;BME280;25875;48.202;16.334;2023-06-14T01:05:48;98775.88;;;16.73;49.15
40155;BME280;25875;48.202;16.334;2023-06-14T01:08:24;98775.44;;;16.68;48.99
40155;BME280;25875;48.202;16.334;2023-06-14T01:10:59;98775.22;;;16.60;49.42
40155;BME280;25875;48.202;16.334;2023-06-14T01:13:29;98775.06;;;16.52;49.44
40155;BME280;25875;48.202;16.334;2023-06-14T01:15:59;98780.69;;;16.49;49.49
40155;BME280;25875;48.202;16.334;2023-06-14T01:18:28;98770.16;;;16.57;49.52
40155;BME280;25875;48.202;16.334;2023-06-14T01:20:55;98770.16;;;16.57;49.33
40155;BME280;25875;48.202;16.334;2023-06-14T01:23:24;98769.28;;;16.47;50.21
40155;BME280;25875;48.202;16.334;2023-06-14T01:25:58;98767.72;;;16.44;49.80
40155;BME280;25875;48.202;16.334;2023-06-14T01:28:28;98755.72;;;16.29;49.65
40155;BME280;25875;48.202;16.334;2023-06-14T01:31:00;98769.13;;;16.39;49.59
40155;BME280;25875;48.202;16.334;2023-06-14T01:33:31;98764.78;;;16.47;49.82
40155;BME280;25875;48.202;16.334;2023-06-14T01:35:59;98762.38;;;16.44;50.02
40155;BME280;25875;48.202;16.334;2023-06-14T01:38:30;98768.31;;;16.48;49.78
40155;BME280;25875;48.202;16.334;2023-06-14T01:40:58;98759.66;;;16.34;50.27
40155;BME280;25875;48.202;16.334;2023-06-14T01:43:28;98764.22;;;16.44;50.23
40155;BME280;25875;48.202;16.334;2023-06-14T01:45:57;98739.81;;;16.27;49.94
40155;BME280;25875;48.202;16.334;2023-06-14T01:48:25;98762.66;;;16.41;49.78
40155;BME280;25875;48.202;16.334;2023-06-14T01:50:52;98769.41;;;16.45;50.02
40155;BME280;25875;48.202;16.334;2023-06-14T01:53:19;98763.47;;;16.32;50.65
40155;BME280;25875;48.202;16.334;2023-06-14T01:55:47;98762.38;;;16.44;50.00
40155;BME280;25875;48.202;16.334;2023-06-14T01:58:14;98701.28;;;15.99;50.13
40155;BME280;25875;48.202;16.334;2023-06-14T02:00:41;98764.63;;;16.39;50.02
40155;BME280;25875;48.202;16.334;2023-06-14T02:03:08;98757.09;;;16.23;50.72
40155;BME280;25875;48.202;16.334;2023-06-14T02:05:37;98761.28;;;16.16;50.61
40155;BME280;25875;48.202;16.334;2023-06-14T02:08:04;98759.31;;;16.18;49.99
40155;BME280;25875;48.202;16.334;2023-06-14T02:10:31;98754.97;;;16.17;50.34
40155;BME280;25875;48.202;16.334;2023-06-14T02:12:59;98761.19;;;16.27;50.17
40155;BME280;25875;48.202;16.334;2023-06-14T02:15:26;98755.56;;;16.30;50.32
40155;BME280;25875;48.202;16.334;2023-06-14T02:17:59;98760.22;;;16.28;50.13
40155;BME280;25875;48.202;16.334;2023-06-14T02:20:26;98769.06;;;16.29;50.14
40155;BME280;25875;48.202;16.334;2023-06-14T02:22:53;98340.31;;;13.71;49.82
40155;BME280;25875;48.202;16.334;2023-06-14T02:25:20;98765.28;;;16.31;49.98
40155;BME280;25875;48.202;16.334;2023-06-14T02:27:46;98755.97;;;16.26;50.30
40155;BME280;25875;48.202;16.334;2023-06-14T02:30:14;98756.66;;;16.18;50.32
40155;BME280;25875;48.202;16.334;2023-06-14T02:32:41;98767.47;;;16.17;50.40
40155;BME280;25875;48.202;16.334;2023-06-14T02:35:09;98775.38;;;16.18;50.24
40155;BME280;25875;48.202;16.334;2023-06-14T02:37:35;98773.34;;;16.11;50.57
40155;BME280;25875;48.202;16.334;2023-06-14T02:40:03;98779.09;;;16.06;50.15
40155;BME280;25875;48.202;16.334;2023-06-14T02:42:31;98782.31;;;16.00;50.46
40155;BME280;25875;48.202;16.334;2023-06-14T02:44:58;98782.31;;;16.00;50.53
40155;BME280;25875;48.202;16.334;2023-06-14T02:47:26;98784.44;;;16.06;50.66
40155;BME280;25875;48.202;16.334;2023-06-14T02:49:52;98777.75;;;15.91;50.46
40155;BME280;25875;48.202;16.334;2023-06-14T02:52:19;98779.44;;;15.92;50.62
40155;BME280;25875;48.202;16.334;2023-06-14T02:54:47;98785.69;;;16.02;50.31
40155;BME280;25875;48.202;16.334;2023-06-14T02:57:13;98779.38;;;16.03;50.19
40155;BME280;25875;48.202;16.334;2023-06-14T02:59:40;98784.25;;;15.98;51.17
40155;BME280;25875;48.202;16.334;2023-06-14T03:02:07;98781.59;;;15.98;50.61
40155;BME280;25875;48.202;16.334;2023-06-14T03:04:35;98784.00;;;16.01;50.55
40155;BME280;25875;48.202;16.334;2023-06-14T03:07:04;98776.31;;;15.87;50.94
40155;BME280;25875;48.202;16.334;2023-06-14T03:09:35;98784.78;;;15.92;50.91
40155;BME280;25875;48.202;16.334;2023-06-14T03:12:03;98754.00;;;15.67;51.05
40155;BME280;25875;48.202;16.334;2023-06-14T03:14:32;98782.78;;;15.84;50.96
40155;BME280;25875;48.202;16.334;2023-06-14T03:16:58;98788.25;;;15.83;51.48
40155;BME280;25875;48.202;16.334;2023-06-14T03:19:25;98793.59;;;15.83;51.09
40155;BME280;25875;48.202;16.334;2023-06-14T03:21:53;98793.06;;;15.89;51.01
40155;BME280;25875;48.202;16.334;2023-06-14T03:24:22;98791.25;;;15.89;51.11
40155;BME280;25875;48.202;16.334;2023-06-14T03:26:49;98789.56;;;15.88;51.04
40155;BME280;25875;48.202;16.334;2023-06-14T03:29:15;98794.72;;;15.80;51.19
40155;BME280;25875;48.202;16.334;2023-06-14T03:31:57;98797.31;;;15.70;51.59
40155;BME280;25875;48.202;16.334;2023-06-14T03:34:24;98801.16;;;15.78;51.33
40155;BME280;25875;48.202;16.334;2023-06-14T03:36:51;98800.19;;;15.79;51.12
40155;BME280;25875;48.202;16.334;2023-06-14T03:39:19;98802.00;;;15.78;51.67
40155;BME280;25875;48.202;16.334;2023-06-14T03:41:46;98808.19;;;15.79;52.31
40155;BME280;25875;48.202;16.334;2023-06-14T03:44:15;98815.50;;;15.77;51.98
40155;BME280;25875;48.202;16.334;2023-06-14T03:46:42;98817.72;;;15.71;51.96
40155;BME280;25875;48.202;16.334;2023-06-14T03:49:08;98765.41;;;15.37;51.84
40155;BME280;25875;48.202;16.334;2023-06-14T03:51:36;98831.47;;;15.67;51.84
40155;BME280;25875;48.202;16.334;2023-06-14T03:54:03;98832.31;;;15.67;52.54
40155;BME280;25875;48.202;16.334;2023-06-14T03:56:31;98836.94;;;15.65;51.94
40155;BME280;25875;48.202;16.334;2023-06-14T03:58:58;98844.09;;;15.65;52.33
40155;BME280;25875;48.202;16.334;2023-06-14T04:01:24;98840.53;;;15.64;52.50
40155;BME280;25875;48.202;16.334;2023-06-14T04:03:52;98842.50;;;15.62;52.18
40155;BME280;25875;48.202;16.334;2023-06-14T04:06:19;98845.56;;;15.58;52.26
40155;BME280;25875;48.202;16.334;2023-06-14T04:08:46;98847.63;;;15.65;52.44
40155;BME280;25875;48.202;16.334;2023-06-14T04:11:14;98851.00;;;15.67;52.35
40155;BME280;25875;48.202;16.334;2023-06-14T04:13:44;98855.72;;;15.64;51.87
40155;BME280;25875;48.202;16.334;2023-06-14T04:16:11;98853.06;;;15.64;52.12
40155;BME280;25875;48.202;16.334;2023-06-14T04:18:37;98858.16;;;15.67;52.26
40155;BME280;25875;48.202;16.334;2023-06-14T04:21:04;98864.38;;;15.67;52.33
40155;BME280;25875;48.202;16.334;2023-06-14T04:23:31;98862.78;;;15.65;51.98
40155;BME280;25875;48.202;16.334;2023-06-14T04:25:58;98861.69;;;15.67;52.47
40155;BME280;25875;48.202;16.334;2023-06-14T04:28:27;98867.38;;;15.63;52.67
40155;BME280;25875;48.202;16.334;2023-06-14T04:30:57;98862.16;;;15.61;52.31
40155;BME280;25875;48.202;16.334;2023-06-14T04:33:27;98871.88;;;15.62;51.91
40155;BME280;25875;48.202;16.334;2023-06-14T04:35:54;98873.22;;;15.68;52.11
40155;BME280;25875;48.202;16.334;2023-06-14T04:38:22;98872.97;;;15.71;51.66
40155;BME280;25875;48.202;16.334;2023-06-14T04:40:50;98877.84;;;15.66;51.61
40155;BME280;25875;48.202;16.334;2023-06-14T04:43:18;98835.63;;;15.49;51.86
40155;BME280;25875;48.202;16.334;2023-06-14T04:45:50;98875.50;;;15.73;52.10
40155;BME280;25875;48.202;16.334;2023-06-14T04:48:18;98885.47;;;15.70;51.97
40155;BME280;25875;48.202;16.334;2023-06-14T04:50:45;98887.31;;;15.70;51.79
40155;BME280;25875;48.202;16.334;2023-06-14T04:53:12;98878.91;;;15.75;51.74
40155;BME280;25875;48.202;16.334;2023-06-14T04:55:39;98887.50;;;15.78;51.93
40155;BME280;25875;48.202;16.334;2023-06-14T04:58:10;98888.56;;;15.87;51.47
40155;BME280;25875;48.202;16.334;2023-06-14T05:00:38;98890.00;;;15.91;52.09
40155;BME280;25875;48.202;16.334;2023-06-14T05:03:04;98891.75;;;15.81;51.98
40155;BME280;25875;48.202;16.334;2023-06-14T05:05:33;98885.47;;;15.70;51.54
40155;BME280;25875;48.202;16.334;2023-06-14T05:08:00;98888.63;;;15.76;51.16
40155;BME280;25875;48.202;16.334;2023-06-14T05:10:27;98889.53;;;15.86;51.55
40155;BME280;25875;48.202;16.334;2023-06-14T05:12:53;98888.03;;;15.93;52.07
40155;BME280;25875;48.202;16.334;2023-06-14T05:15:21;98887.53;;;15.99;51.75
40155;BME280;25875;48.202;16.334;2023-06-14T05:17:50;98887.97;;;16.04;51.37
40155;BME280;25875;48.202;16.334;2023-06-14T05:20:20;98886.88;;;15.86;51.02
40155;BME280;25875;48.202;16.334;2023-06-14T05:22:49;98896.09;;;15.82;50.99
40155;BME280;25875;48.202;16.334;2023-06-14T05:25:17;98887.06;;;15.94;51.26
40155;BME280;25875;48.202;16.334;2023-06-14T05:27:44;98889.47;;;15.97;50.17
40155;BME280;25875;48.202;16.334;2023-06-14T05:30:12;98892.47;;;16.03;50.14
40155;BME280;25875;48.202;16.334;2023-06-14T05:32:38;98400.47;;;13.08;50.20
40155;BME280;25875;48.202;16.334;2023-06-14T05:35:06;98898.47;;;16.17;50.49
40155;BME280;25875;48.202;16.334;2023-06-14T05:37:33;98900.94;;;16.09;49.43
40155;BME280;25875;48.202;16.334;2023-06-14T05:40:01;98898.16;;;16.10;49.67
40155;BME280;25875;48.202;16.334;2023-06-14T05:42:30;98898.47;;;15.96;49.25
40155;BME280;25875;48.202;16.334;2023-06-14T05:44:57;98898.72;;;16.14;49.58
40155;BME280;25875;48.202;16.334;2023-06-14T05:47:24;98900.63;;;16.23;49.60
40155;BME280;25875;48.202;16.334;2023-06-14T05:49:51;98900.56;;;16.34;49.47
40155;BME280;25875;48.202;16.334;2023-06-14T05:52:18;98893.25;;;16.36;48.66
40155;BME280;25875;48.202;16.334;2023-06-14T05:54:44;98893.81;;;16.40;49.07
40155;BME280;25875;48.202;16.334;2023-06-14T05:57:12;98908.03;;;16.40;49.40
40155;BME280;25875;48.202;16.334;2023-06-14T05:59:39;98900.47;;;16.45;49.43
40155;BME280;25875;48.202;16.334;2023-06-14T06:02:06;98908.19;;;16.39;49.34
40155;BME280;25875;48.202;16.334;2023-06-14T06:04:33;98812.50;;;15.91;49.29
40155;BME280;25875;48.202;16.334;2023-06-14T06:07:00;98910.38;;;16.54;49.16
40155;BME280;25875;48.202;16.334;2023-06-14T06:09:27;98909.00;;;16.60;49.48
40155;BME280;25875;48.202;16.334;2023-06-14T06:11:53;98910.41;;;16.64;49.13
40155;BME280;25875;48.202;16.334;2023-06-14T06:14:21;98907.75;;;16.64;49.90
40155;BME280;25875;48.202;16.334;2023-06-14T06:16:48;98905.81;;;16.66;49.57
40155;BME280;25875;48.202;16.334;2023-06-14T06:19:15;98891.19;;;16.49;50.25
40155;BME280;25875;48.202;16.334;2023-06-14T06:21:42;98918.78;;;16.71;50.08
40155;BME280;25875;48.202;16.334;2023-06-14T06:24:09;98911.94;;;16.78;49.66
40155;BME280;25875;48.202;16.334;2023-06-14T06:26:36;98929.41;;;16.82;49.48
40155;BME280;25875;48.202;16.334;2023-06-14T06:29:04;98920.13;;;16.86;49.15
40155;BME280;25875;48.202;16.334;2023-06-14T06:31:32;98883.22;;;16.59;49.17
40155;BME280;25875;48.202;16.334;2023-06-14T06:33:59;98922.25;;;16.92;49.00
40155;BME280;25875;48.202;16.334;2023-06-14T06:36:26;98924.41;;;16.98;49.13
40155;BME280;25875;48.202;16.334;2023-06-14T06:38:53;98926.94;;;16.99;49.98
40155;BME280;25875;48.202;16.334;2023-06-14T06:41:19;98922.56;;;16.98;49.14
40155;BME280;25875;48.202;16.334;2023-06-14T06:43:46;98925.81;;;17.02;48.71
40155;BME280;25875;48.202;16.334;2023-06-14T06:46:13;98929.66;;;17.09;48.48
40155;BME280;25875;48.202;16.334;2023-06-14T06:48:41;98927.09;;;17.08;48.59
40155;BME280;25875;48.202;16.334;2023-06-14T06:51:08;98919.94;;;17.08;48.50
40155;BME280;25875;48.202;16.334;2023-06-14T06:53:34;98903.38;;;16.93;47.88
40155;BME280;25875;48.202;16.334;2023-06-14T06:56:01;98928.00;;;17.18;48.28
40155;BME280;25875;48.202;16.334;2023-06-14T06:58:28;98927.34;;;17.25;47.73
40155;BME280;25875;48.202;16.334;2023-06-14T07:00:55;98929.19;;;17.35;47.23
40155;BME280;25875;48.202;16.334;2023-06-14T07:03:21;98801.97;;;16.60;47.19
40155;BME280;25875;48.202;16.334;2023-06-14T07:05:50;98922.72;;;17.47;46.79
40155;BME280;25875;48.202;16.334;2023-06-14T07:08:16;98929.50;;;17.51;47.02
40155;BME280;25875;48.202;16.334;2023-06-14T07:10:43;98928.94;;;17.57;46.72
40155;BME280;25875;48.202;16.334;2023-06-14T07:13:10;98936.47;;;17.73;46.57
40155;BME280;25875;48.202;16.334;2023-06-14T07:15:37;98935.50;;;17.83;46.01
40155;BME280;25875;48.202;16.334;2023-06-14T07:18:04;98914.59;;;17.68;45.95
40155;BME280;25875;48.202;16.334;2023-06-14T07:20:32;98938.31;;;18.01;45.94
40155;BME280;25875;48.202;16.334;2023-06-14T07:23:00;98936.44;;;18.31;45.94
40155;BME280;25875;48.202;16.334;2023-06-14T07:25:27;98941.78;;;18.50;46.01
40155;BME280;25875;48.202;16.334;2023-06-14T07:27:53;98937.78;;;18.73;45.62
40155;BME280;25875;48.202;16.334;2023-06-14T07:30:20;98943.53;;;18.88;45.24
40155;BME280;25875;48.202;16.334;2023-06-14T07:32:51;98948.97;;;19.06;44.74
40155;BME280;25875;48.202;16.334;2023-06-14T07:35:18;98946.19;;;19.25;44.24
40155;BME280;25875;48.202;16.334;2023-06-14T07:37:44;98938.81;;;19.27;44.11
40155;BME280;25875;48.202;16.334;2023-06-14T07:40:14;98940.13;;;19.23;43.87
40155;BME280;25875;48.202;16.334;2023-06-14T07:42:40;98939.28;;;19.22;43.58
40155;BME280;25875;48.202;16.334;2023-06-14T07:45:08;98940.38;;;19.02;44.44
40155;BME280;25875;48.202;16.334;2023-06-14T07:47:34;98885.69;;;18.66;44.51
40155;BME280;25875;48.202;16.334;2023-06-14T07:50:01;98954.94;;;19.00;44.21
40155;BME280;25875;48.202;16.334;2023-06-14T07:52:28;98927.38;;;18.98;43.95
40155;BME280;25875;48.202;16.334;2023-06-14T07:54:55;98953.84;;;19.20;44.17
40155;BME280;25875;48.202;16.334;2023-06-14T07:57:23;98943.91;;;19.30;44.22
40155;BME280;25875;48.202;16.334;2023-06-14T07:59:50;98949.25;;;19.40;43.96
40155;BME280;25875;48.202;16.334;2023-06-14T08:02:17;98951.03;;;19.49;43.46
40155;BME280;25875;48.202;16.334;2023-06-14T08:04:44;98947.25;;;19.42;42.72
40155;BME280;25875;48.202;16.334;2023-06-14T08:07:10;98953.06;;;19.65;42.73
40155;BME280;25875;48.202;16.334;2023-06-14T08:09:37;98948.78;;;19.72;42.48
40155;BME280;25875;48.202;16.334;2023-06-14T08:12:04;98946.28;;;19.88;42.18
40155;BME280;25875;48.202;16.334;2023-06-14T08:14:34;98950.56;;;20.16;41.55
40155;BME280;25875;48.202;16.334;2023-06-14T08:17:01;98951.03;;;20.30;41.35
40155;BME280;25875;48.202;16.334;2023-06-14T08:19:27;98946.94;;;20.43;40.68
40155;BME280;25875;48.202;16.334;2023-06-14T08:21:54;98949.72;;;20.34;40.10
40155;BME280;25875;48.202;16.334;2023-06-14T08:24:21;98948.56;;;20.01;41.24
40155;BME280;25875;48.202;16.334;2023-06-14T08:26:49;98946.97;;;20.08;41.38
40155;BME280;25875;48.202;16.334;2023-06-14T08:29:16;98948.69;;;20.53;40.95
40155;BME280;25875;48.202;16.334;2023-06-14T08:31:44;98957.97;;;20.58;41.52
40155;BME280;25875;48.202;16.334;2023-06-14T08:34:11;98949.09;;;20.92;41.07
40155;BME280;25875;48.202;16.334;2023-06-14T08:36:38;98950.09;;;20.91;40.84
40155;BME280;25875;48.202;16.334;2023-06-14T08:39:05;98948.38;;;20.81;40.41
40155;BME280;25875;48.202;16.334;2023-06-14T08:41:34;98959.03;;;20.91;40.06
40155;BME280;25875;48.202;16.334;2023-06-14T08:44:02;98956.66;;;20.88;40.18
40155;BME280;25875;48.202;16.334;2023-06-14T08:46:32;98947.63;;;20.71;39.58
40155;BME280;25875;48.202;16.334;2023-06-14T08:49:01;98958.50;;;20.62;39.86
40155;BME280;25875;48.202;16.334;2023-06-14T08:51:31;98956.03;;;20.42;40.17
40155;BME280;25875;48.202;16.334;2023-06-14T08:54:00;98958.41;;;20.45;40.00
40155;BME280;25875;48.202;16.334;2023-06-14T08:56:27;98952.75;;;20.57;39.84
40155;BME280;25875;48.202;16.334;2023-06-14T08:58:55;98961.63;;;20.75;39.57
40155;BME280;25875;48.202;16.334;2023-06-14T09:01:22;98962.16;;;20.78;39.77
40155;BME280;25875;48.202;16.334;2023-06-14T09:03:50;98954.69;;;20.98;39.47
40155;BME280;25875;48.202;16.334;2023-06-14T09:06:19;98961.75;;;21.25;38.56
40155;BME280;25875;48.202;16.334;2023-06-14T09:08:49;98956.28;;;21.43;38.82
40155;BME280;25875;48.202;16.334;2023-06-14T09:11:17;98933.81;;;21.26;38.21
40155;BME280;25875;48.202;16.334;2023-06-14T09:13:45;98888.78;;;21.10;37.49
40155;BME280;25875;48.202;16.334;2023-06-14T09:16:12;98957.31;;;21.50;37.44
40155;BME280;25875;48.202;16.334;2023-06-14T09:18:41;98958.78;;;21.36;37.80
40155;BME280;25875;48.202;16.334;2023-06-14T09:21:10;98943.19;;;21.14;37.61
40155;BME280;25875;48.202;16.334;2023-06-14T09:23:39;98963.75;;;21.15;37.62
40155;BME280;25875;48.202;16.334;2023-06-14T09:26:09;98963.63;;;21.25;37.33
40155;BME280;25875;48.202;16.334;2023-06-14T09:28:36;98953.41;;;21.44;37.63
40155;BME280;25875;48.202;16.334;2023-06-14T09:31:03;98958.88;;;21.69;37.11
40155;BME280;25875;48.202;16.334;2023-06-14T09:33:31;98954.75;;;21.91;36.97
40155;BME280;25875;48.202;16.334;2023-06-14T09:35:58;98943.94;;;21.91;37.07
40155;BME280;25875;48.202;16.334;2023-06-14T09:38:25;98953.41;;;21.95;37.47
40155;BME280;25875;48.202;16.334;2023-06-14T09:40:56;98948.84;;;21.87;37.21
40155;BME280;25875;48.202;16.334;2023-06-14T09:43:23;98949.34;;;21.91;37.12
40155;BME280;25875;48.202;16.334;2023-06-14T09:45:53;98944.66;;;22.25;37.04
40155;BME280;25875;48.202;16.334;2023-06-14T09:48:20;98944.97;;;22.22;36.49
40155;BME280;25875;48.202;16.334;2023-06-14T09:50:50;98926.94;;;21.98;35.28
40155;BME280;25875;48.202;16.334;2023-06-14T09:53:20;98898.44;;;22.04;35.76
40155;BME280;25875;48.202;16.334;2023-06-14T09:55:49;98894.38;;;21.92;35.40
40155;BME280;25875;48.202;16.334;2023-06-14T09:58:19;98833.47;;;21.65;35.75
40155;BME280;25875;48.202;16.334;2023-06-14T10:00:47;98868.75;;;21.96;36.00
40155;BME280;25875;48.202;16.334;2023-06-14T10:03:21;98938.72;;;22.38;35.88
40155;BME280;25875;48.202;16.334;2023-06-14T10:05:51;98947.19;;;22.43;36.20
40155;BME280;25875;48.202;16.334;2023-06-14T10:08:20;98945.81;;;22.31;36.17
40155;BME280;25875;48.202;16.334;2023-06-14T10:10:51;98942.16;;;22.56;35.49
40155;BME280;25875;48.202;16.334;2023-06-14T10:13:19;98936.94;;;22.55;35.67
40155;BME280;25875;48.202;16.334;2023-06-14T10:15:52;98942.13;;;22.48;34.85
40155;BME280;25875;48.202;16.334;2023-06-14T10:18:30;98941.81;;;22.43;35.20
40155;BME280;25875;48.202;16.334;2023-06-14T10:21:04;98935.53;;;22.26;35.11
40155;BME280;25875;48.202;16.334;2023-06-14T10:23:37;98878.03;;;22.09;34.91
40155;BME280;25875;48.202;16.334;2023-06-14T10:26:08;98898.09;;;21.99;35.66
40155;BME280;25875;48.202;16.334;2023-06-14T10:28:38;98929.63;;;21.90;36.33
40155;BME280;25875;48.202;16.334;2023-06-14T10:31:06;98939.16;;;21.76;36.67
40155;BME280;25875;48.202;16.334;2023-06-14T10:33:34;98940.06;;;22.01;34.88
40155;BME280;25875;48.202;16.334;2023-06-14T10:36:23;98942.28;;;21.98;35.26
40155;BME280;25875;48.202;16.334;2023-06-14T10:39:05;98941.75;;;21.94;35.78
40155;BME280;25875;48.202;16.334;2023-06-14T10:41:36;98940.75;;;21.95;35.32
40155;BME280;25875;48.202;16.334;2023-06-14T10:44:34;98938.06;;;21.95;36.92
40155;BME280;25875;48.202;16.334;2023-06-14T10:47:07;98934.00;;;21.91;36.20
40155;BME280;25875;48.202;16.334;2023-06-14T10:49:39;98929.44;;;21.84;35.48
40155;BME280;25875;48.202;16.334;2023-06-14T10:52:09;98930.22;;;21.68;35.68
40155;BME280;25875;48.202;16.334;2023-06-14T10:55:01;98922.47;;;21.73;36.26
40155;BME280;25875;48.202;16.334;2023-06-14T10:57:29;98924.66;;;21.69;36.04
40155;BME280;25875;48.202;16.334;2023-06-14T10:59:59;98870.09;;;21.17;35.96
40155;BME280;25875;48.202;16.334;2023-06-14T11:05:52;98924.00;;;21.75;36.37
40155;BME280;25875;48.202;16.334;2023-06-14T11:08:30;98923.16;;;21.75;36.22
40155;BME280;25875;48.202;16.334;2023-06-14T11:11:06;98918.16;;;21.88;36.51
40155;BME280;25875;48.202;16.334;2023-06-14T11:13:33;98917.97;;;21.90;36.17
40155;BME280;25875;48.202;16.334;2023-06-14T11:16:01;98921.50;;;21.82;36.18
40155;BME280;25875;48.202;16.334;2023-06-14T11:18:28;98920.66;;;21.82;36.48
40155;BME280;25875;48.202;16.334;2023-06-14T11:20:55;98917.97;;;21.90;35.96
40155;BME280;25875;48.202;16.334;2023-06-14T11:23:22;98923.53;;;21.80;35.28
40155;BME280;25875;48.202;16.334;2023-06-14T11:25:52;98906.81;;;21.76;35.37
40155;BME280;25875;48.202;16.334;2023-06-14T11:28:19;98912.41;;;21.91;35.04
40155;BME280;25875;48.202;16.334;2023-06-14T11:30:47;98920.00;;;22.04;34.98
40155;BME280;25875;48.202;16.334;2023-06-14T11:33:18;98919.84;;;22.30;34.50
40155;BME280;25875;48.202;16.334;2023-06-14T11:35:45;98909.56;;;22.41;33.30
40155;BME280;25875;48.202;16.334;2023-06-14T11:38:12;98906.84;;;22.25;34.11
40155;BME280;25875;48.202;16.334;2023-06-14T11:40:39;98909.56;;;22.25;33.79
40155;BME280;25875;48.202;16.334;2023-06-14T11:43:05;98799.75;;;21.53;32.92
40155;BME280;25875;48.202;16.334;2023-06-14T11:45:32;98912.09;;;22.19;33.29
40155;BME280;25875;48.202;16.334;2023-06-14T11:48:00;98908.53;;;21.94;32.87
40155;BME280;25875;48.202;16.334;2023-06-14T11:50:28;98912.06;;;21.86;34.72
40155;BME280;25875;48.202;16.334;2023-06-14T11:52:56;98906.81;;;21.76;35.79
40155;BME280;25875;48.202;16.334;2023-06-14T11:55:23;98900.28;;;22.12;35.03
40155;BME280;25875;48.202;16.334;2023-06-14T11:57:50;98899.09;;;22.22;35.28
40155;BME280;25875;48.202;16.334;2023-06-14T12:00:18;98896.41;;;22.14;35.48
40155;BME280;25875;48.202;16.334;2023-06-14T12:02:52;98885.94;;;22.11;35.56
40155;BME280;25875;48.202;16.334;2023-06-14T12:05:21;98877.00;;;22.02;35.06
40155;BME280;25875;48.202;16.334;2023-06-14T12:07:50;98883.59;;;22.40;34.26
40155;BME280;25875;48.202;16.334;2023-06-14T12:10:18;98897.75;;;22.42;34.71
40155;BME280;25875;48.202;16.334;2023-06-14T12:12:45;98891.16;;;22.53;34.77
40155;BME280;25875;48.202;16.334;2023-06-14T12:15:12;98884.94;;;22.61;34.42
40155;BME280;25875;48.202;16.334;2023-06-14T12:17:39;98887.44;;;22.30;35.34
40155;BME280;25875;48.202;16.334;2023-06-14T12:20:09;98893.19;;;22.02;35.57
40155;BME280;25875;48.202;16.334;2023-06-14T12:22:51;98886.13;;;21.93;36.01
40155;BME280;25875;48.202;16.334;2023-06-14T12:25:26;98891.69;;;22.00;35.60
40155;BME280;25875;48.202;16.334;2023-06-14T12:27:54;98888.97;;;22.08;35.25
40155;BME280;25875;48.202;16.334;2023-06-14T12:30:21;98895.56;;;22.05;34.97
40155;BME280;25875;48.202;16.334;2023-06-14T12:32:48;98885.09;;;22.02;34.94
40155;BME280;25875;48.202;16.334;2023-06-14T12:35:16;98888.75;;;21.69;33.57
40155;BME280;25875;48.202;16.334;2023-06-14T12:37:43;98890.59;;;21.60;34.56
40155;BME280;25875;48.202;16.334;2023-06-14T12:40:13;98884.69;;;21.49;34.99
40155;BME280;25875;48.202;16.334;2023-06-14T12:42:40;98892.47;;;21.68;34.34
40155;BME280;25875;48.202;16.334;2023-06-14T12:45:07;98833.25;;;21.34;35.06
40155;BME280;25875;48.202;16.334;2023-06-14T12:47:34;98887.38;;;21.57;34.64
40155;BME280;25875;48.202;16.334;2023-06-14T12:50:01;98888.91;;;21.59;35.08
40155;BME280;25875;48.202;16.334;2023-06-14T12:52:28;98886.91;;;21.77;34.81
40155;BME280;25875;48.202;16.334;2023-06-14T12:54:55;98887.28;;;21.91;34.14
40155;BME280;25875;48.202;16.334;2023-06-14T12:57:24;98876.34;;;21.84;33.70
40155;BME280;25875;48.202;16.334;2023-06-14T12:59:51;98875.50;;;21.92;34.31